Aérodrome :
LOGIN :

S'inscrire | Disclaimer

   EN    FR    IT 

 










Légende :    VFR   VFR Marginal   IFR   IFR Intensif   IFR Très Intensif
Visi : 
Plafond : 
>= 8 km
>= 3000ft
5 à 8 km
1000 à 3000 ft
1500m à 5 km
500 à 1000 ft
800 à 1500m
200 à 500 ft
< 800m
< 200 ft
Symboles :   Orages  Brouillard  Fortes neiges  Fortes précipitations  Vent > 20 kt
SIGMETs :   Divers  Orages  Givrage  Turbulence  Onde Orograph.  Cendres Volcan.






- Altitude de l'aérodrome : 209 ft
- Code IATA : CLY


LFKC - Calvi

DERNIER METAR :
  • 250630Z AUTO VRB03KT 9999 FEW100 20/15 Q1012 TEMPO BKN018 FEW033CB

METARs EXPIRÉS :
  • 250600Z AUTO 17004KT 9999 FEW074 BKN100 19/16 Q1012 TEMPO BKN018 FEW033CB
  • 250530Z AUTO 21004KT 9999 FEW066 SCT086 BKN100 18/15 Q1012 TEMPO BKN018 FEW033CB
  • 250500Z AUTO 18004KT 9999 FEW049 BKN066 BKN076 18/16 Q1011 TEMPO SHRA BKN018 FEW033CB
  • 250430Z AUTO 19004KT 9999 BKN066 BKN080 OVC100 18/15 Q1011 TEMPO SHRA BKN018 FEW033CB
  • 250400Z AUTO 15004KT 9999 FEW068 OVC100 17/15 Q1011 TEMPO SHRA BKN014 SCT030CB
  • 250330Z AUTO 16005KT 9999 OVC100 17/16 Q1011 TEMPO SHRA BKN014 SCT030CB
  • 250300Z AUTO 17005KT 9999 OVC100 17/16 Q1011 TEMPO SHRA BKN014 SCT030CB
  • 250230Z AUTO VRB03KT 9999 BKN100/// ///TCU 17/15 Q1011 TEMPO SHRA BKN014 SCT030CB
  • 250200Z AUTO 21005KT 9999 FEW017 BKN100 17/15 Q1011
  • 250130Z AUTO 17006KT 9999 SCT016 SCT070 16/15 Q1012

TAF TAF LFKC
Valide du 25 à 03h jusqu'au 26 à 03h UTC


250200Z 2503/2603 18005KT 9999 BKN017 BKN060 TX22/2510Z TN14/2505Z
PROB40
TEMPO 2503/2506 SHRA BKN014 SCT030CB
TEMPO 2506/2517 BKN018 FEW033CB
PROB40
TEMPO 2509/2517 TS
BECMG 2510/2512 35007KT
BECMG 2520/2522 18004KT BKN014 BKN080
ATIS : +33 4 95 65 82 49



MET'MAP, la Météo Aéronautique d'un coup d'oeil ! - Copyright ORBIFLY Décembre 2007 - Disclaimer

ORBIFLY MET'MAP TEAM :

Programmation & Développement : Alexandra Zaïnal
Sur une idée originale de : Baudouin d'Aumeries
Soutien technique & logistique : Manuel Goepfert
Assistance : Marc-Olivier Méhu




SOURCES & CREDITS :

   NOAA